WAT889 EDDN-EDDG
Flight info
| Callsign | WAT889 |
|---|---|
| Flight time | 0h 53m |
| Altitude | 24000 |
| Route | SULUS1G/28 SULUS L604 MASEK Z52 ARPEG Z850 HMM HMM1B |
| Aircraft | A320/M-SDE3FGHIRWY/LB1 |
Departure
| Time | 2026-04-09 21:49 |
|---|---|
| Airport | Nuremberg Airport (EDDN) |
Arrival
| Time | 2026-04-09 22:42 |
|---|---|
| Airport | Münster Osnabrück Airport (EDDG) |
| Time | Latitude | Longitude | Altitude | Speed | Heading |
|---|---|---|---|---|---|
| 2026-04-09 21:28 | 49.49520 | 11.07725 | 1027 ft | 0 kts | 188° |
| 2026-04-09 21:41 | 49.49523 | 11.07725 | 1027 ft | 2 kts | 188° |
| 2026-04-09 21:41 | 49.49541 | 11.07729 | 1026 ft | 3 kts | 186° |
| 2026-04-09 21:41 | 49.49561 | 11.07732 | 1026 ft | 3 kts | 183° |
| 2026-04-09 21:41 | 49.49582 | 11.07733 | 1028 ft | 3 kts | 179° |
| 2026-04-09 21:42 | 49.49598 | 11.07732 | 1030 ft | 1 kts | 175° |
| 2026-04-09 21:42 | 49.49604 | 11.07731 | 1030 ft | 0 kts | 175° |
| 2026-04-09 21:45 | 49.49596 | 11.07737 | 1030 ft | 3 kts | 150° |
| 2026-04-09 21:45 | 49.49585 | 11.07785 | 1027 ft | 6 kts | 103° |
| 2026-04-09 21:45 | 49.49571 | 11.07932 | 1030 ft | 23 kts | 97° |
| 2026-04-09 21:46 | 49.49544 | 11.08193 | 1030 ft | 26 kts | 98° |
| 2026-04-09 21:46 | 49.49557 | 11.08401 | 1033 ft | 15 kts | 24° |
| 2026-04-09 21:46 | 49.49611 | 11.08490 | 1032 ft | 16 kts | 100° |
| 2026-04-09 21:46 | 49.49587 | 11.08731 | 1035 ft | 26 kts | 98° |
| 2026-04-09 21:47 | 49.49560 | 11.09011 | 1037 ft | 27 kts | 98° |
| 2026-04-09 21:47 | 49.49531 | 11.09298 | 1041 ft | 27 kts | 97° |
| 2026-04-09 21:47 | 49.49618 | 11.09539 | 1043 ft | 27 kts | 49° |
| 2026-04-09 21:47 | 49.49720 | 11.09534 | 1045 ft | 13 kts | 268° |
| 2026-04-09 21:48 | 49.49716 | 11.09373 | 1042 ft | 17 kts | 275° |
| 2026-04-09 21:48 | 49.49725 | 11.09278 | 1042 ft | 11 kts | 278° |
| 2026-04-09 21:48 | 49.49774 | 11.08777 | 1032 ft | 86 kts | 279° |
| 2026-04-09 21:48 | 49.49895 | 11.07549 | 1032 ft | 143 kts | 278° |
| 2026-04-09 21:49 | 49.50060 | 11.05925 | 1344 ft | 157 kts | 278° |
| 2026-04-09 21:49 | 49.50223 | 11.04277 | 2007 ft | 155 kts | 278° |
| 2026-04-09 21:49 | 49.50393 | 11.02517 | 2330 ft | 178 kts | 278° |
| 2026-04-09 21:49 | 49.50585 | 11.00518 | 2688 ft | 200 kts | 278° |
| 2026-04-09 21:50 | 49.50801 | 10.98305 | 3068 ft | 224 kts | 278° |
| 2026-04-09 21:50 | 49.51048 | 10.95826 | 3551 ft | 245 kts | 281° |
| 2026-04-09 21:50 | 49.51803 | 10.93413 | 4242 ft | 260 kts | 315° |
| 2026-04-09 21:50 | 49.53385 | 10.92083 | 5202 ft | 266 kts | 346° |
| 2026-04-09 21:51 | 49.55222 | 10.91801 | 6325 ft | 264 kts | 358° |
| 2026-04-09 21:51 | 49.57053 | 10.91939 | 7387 ft | 264 kts | 1° |
| 2026-04-09 21:51 | 49.58886 | 10.92187 | 8332 ft | 266 kts | 2° |
| 2026-04-09 21:51 | 49.60739 | 10.92425 | 9257 ft | 269 kts | 1° |
| 2026-04-09 21:52 | 49.62616 | 10.92608 | 10152 ft | 271 kts | 359° |
| 2026-04-09 21:52 | 49.64561 | 10.92736 | 10579 ft | 291 kts | 359° |
| 2026-04-09 21:52 | 49.66665 | 10.92827 | 10856 ft | 312 kts | 358° |
| 2026-04-09 21:52 | 49.68872 | 10.92886 | 11473 ft | 319 kts | 356° |
| 2026-04-09 21:53 | 49.71072 | 10.92436 | 12233 ft | 320 kts | 343° |
| 2026-04-09 21:53 | 49.73161 | 10.91368 | 13013 ft | 321 kts | 339° |
| 2026-04-09 21:53 | 49.75283 | 10.90229 | 13817 ft | 324 kts | 339° |
| 2026-04-09 21:53 | 49.77421 | 10.89079 | 14461 ft | 328 kts | 339° |
| 2026-04-09 21:54 | 49.79599 | 10.87912 | 15100 ft | 332 kts | 339° |
| 2026-04-09 21:54 | 49.81792 | 10.86739 | 15774 ft | 335 kts | 339° |
| 2026-04-09 21:54 | 49.84003 | 10.85554 | 16450 ft | 337 kts | 339° |
| 2026-04-09 21:54 | 49.86234 | 10.84360 | 17127 ft | 340 kts | 339° |
| 2026-04-09 21:55 | 49.88476 | 10.83158 | 17808 ft | 342 kts | 339° |
| 2026-04-09 21:55 | 49.90736 | 10.81942 | 18499 ft | 345 kts | 339° |
| 2026-04-09 21:55 | 49.93013 | 10.80711 | 19115 ft | 348 kts | 339° |
| 2026-04-09 21:55 | 49.95307 | 10.79474 | 19725 ft | 351 kts | 339° |
| 2026-04-09 21:56 | 49.97631 | 10.78227 | 20341 ft | 354 kts | 339° |
| 2026-04-09 21:56 | 49.99969 | 10.76971 | 20947 ft | 357 kts | 339° |
| 2026-04-09 21:56 | 50.02328 | 10.75695 | 21536 ft | 361 kts | 339° |
| 2026-04-09 21:56 | 50.04702 | 10.74403 | 22117 ft | 363 kts | 337° |
| 2026-04-09 21:57 | 50.06983 | 10.72711 | 22678 ft | 364 kts | 327° |
| 2026-04-09 21:57 | 50.09031 | 10.70361 | 23240 ft | 366 kts | 317° |
| 2026-04-09 21:57 | 50.10796 | 10.67570 | 23771 ft | 369 kts | 314° |
| 2026-04-09 21:57 | 50.12570 | 10.64653 | 24047 ft | 371 kts | 313° |
| 2026-04-09 21:58 | 50.14350 | 10.61724 | 24116 ft | 374 kts | 314° |
| 2026-04-09 21:58 | 50.16139 | 10.58777 | 24098 ft | 375 kts | 313° |
| 2026-04-09 21:58 | 50.17941 | 10.55813 | 24123 ft | 378 kts | 313° |
| 2026-04-09 21:58 | 50.19762 | 10.52822 | 24122 ft | 379 kts | 313° |
| 2026-04-09 21:59 | 50.21576 | 10.49833 | 24116 ft | 380 kts | 313° |
| 2026-04-09 21:59 | 50.23398 | 10.46838 | 24120 ft | 380 kts | 313° |
| 2026-04-09 21:59 | 50.25230 | 10.43873 | 24121 ft | 380 kts | 314° |
| 2026-04-09 21:59 | 50.27078 | 10.40916 | 24119 ft | 380 kts | 314° |
| 2026-04-09 22:00 | 50.28924 | 10.37963 | 24092 ft | 380 kts | 314° |
| 2026-04-09 22:00 | 50.30773 | 10.35001 | 24113 ft | 380 kts | 314° |
| 2026-04-09 22:00 | 50.32611 | 10.32044 | 24113 ft | 380 kts | 314° |
| 2026-04-09 22:00 | 50.34449 | 10.29073 | 24117 ft | 380 kts | 314° |
| 2026-04-09 22:01 | 50.36249 | 10.26049 | 24116 ft | 379 kts | 311° |
| 2026-04-09 22:01 | 50.37969 | 10.22915 | 24115 ft | 380 kts | 310° |
| 2026-04-09 22:01 | 50.39695 | 10.19849 | 24089 ft | 380 kts | 312° |
| 2026-04-09 22:01 | 50.41494 | 10.16815 | 24089 ft | 380 kts | 313° |
| 2026-04-09 22:02 | 50.43331 | 10.13830 | 24086 ft | 381 kts | 314° |
| 2026-04-09 22:02 | 50.45171 | 10.10848 | 24099 ft | 381 kts | 313° |
| 2026-04-09 22:02 | 50.46991 | 10.07826 | 24099 ft | 381 kts | 312° |
| 2026-04-09 22:02 | 50.48791 | 10.04773 | 24099 ft | 381 kts | 312° |
| 2026-04-09 22:03 | 50.50578 | 10.01707 | 24101 ft | 381 kts | 312° |
| 2026-04-09 22:03 | 50.52365 | 9.98626 | 24101 ft | 381 kts | 312° |
| 2026-04-09 22:03 | 50.54150 | 9.95548 | 24101 ft | 381 kts | 311° |
| 2026-04-09 22:03 | 50.55898 | 9.92418 | 24104 ft | 381 kts | 310° |
| 2026-04-09 22:04 | 50.57600 | 9.89228 | 24100 ft | 381 kts | 309° |
| 2026-04-09 22:04 | 50.59274 | 9.86001 | 24100 ft | 381 kts | 309° |
| 2026-04-09 22:04 | 50.60939 | 9.82767 | 24100 ft | 380 kts | 309° |
| 2026-04-09 22:04 | 50.62610 | 9.79525 | 24090 ft | 380 kts | 309° |
| 2026-04-09 22:05 | 50.64284 | 9.76301 | 24093 ft | 380 kts | 309° |
| 2026-04-09 22:05 | 50.67648 | 9.69876 | 24091 ft | 380 kts | 309° |
| 2026-04-09 22:05 | 50.69335 | 9.66670 | 24094 ft | 380 kts | 309° |
| 2026-04-09 22:06 | 50.71016 | 9.63453 | 24094 ft | 380 kts | 307° |
| 2026-04-09 22:06 | 50.72416 | 9.59992 | 24094 ft | 380 kts | 297° |
| 2026-04-09 22:06 | 50.73399 | 9.56116 | 24084 ft | 381 kts | 288° |
| 2026-04-09 22:06 | 50.73991 | 9.52030 | 24084 ft | 382 kts | 284° |
| 2026-04-09 22:07 | 50.74539 | 9.47926 | 24084 ft | 382 kts | 284° |
| 2026-04-09 22:07 | 50.75093 | 9.43810 | 24084 ft | 382 kts | 284° |
| 2026-04-09 22:07 | 50.75650 | 9.39713 | 24083 ft | 382 kts | 284° |
| 2026-04-09 22:07 | 50.76212 | 9.35614 | 24064 ft | 382 kts | 284° |
| 2026-04-09 22:08 | 50.76776 | 9.31509 | 24063 ft | 382 kts | 284° |
| 2026-04-09 22:08 | 50.77335 | 9.27410 | 24064 ft | 382 kts | 284° |
| 2026-04-09 22:08 | 50.77890 | 9.23304 | 24066 ft | 382 kts | 284° |
| 2026-04-09 22:08 | 50.78441 | 9.19196 | 24068 ft | 382 kts | 283° |
| 2026-04-09 22:09 | 50.78985 | 9.15092 | 24069 ft | 382 kts | 283° |
| 2026-04-09 22:09 | 50.79532 | 9.10969 | 24070 ft | 382 kts | 283° |
| 2026-04-09 22:09 | 50.80070 | 9.06911 | 24071 ft | 382 kts | 283° |
| 2026-04-09 22:09 | 50.80616 | 9.02801 | 24067 ft | 382 kts | 283° |
| 2026-04-09 22:10 | 50.81160 | 8.98686 | 24067 ft | 382 kts | 283° |
| 2026-04-09 22:10 | 50.81702 | 8.94568 | 24067 ft | 382 kts | 283° |
| 2026-04-09 22:10 | 50.82264 | 8.90473 | 24066 ft | 382 kts | 287° |
| 2026-04-09 22:10 | 50.83174 | 8.86535 | 24066 ft | 380 kts | 296° |
| 2026-04-09 22:11 | 50.84401 | 8.82829 | 24063 ft | 380 kts | 298° |
| 2026-04-09 22:11 | 50.85639 | 8.79137 | 24062 ft | 380 kts | 298° |
| 2026-04-09 22:11 | 50.86873 | 8.75438 | 24063 ft | 380 kts | 298° |
| 2026-04-09 22:11 | 50.88104 | 8.71738 | 24062 ft | 380 kts | 298° |
| 2026-04-09 22:12 | 50.89333 | 8.68035 | 24065 ft | 380 kts | 298° |
| 2026-04-09 22:12 | 50.90564 | 8.64320 | 24057 ft | 380 kts | 298° |
| 2026-04-09 22:12 | 50.91790 | 8.60611 | 24057 ft | 380 kts | 298° |
| 2026-04-09 22:12 | 50.93021 | 8.56892 | 24055 ft | 380 kts | 298° |
| 2026-04-09 22:13 | 50.94250 | 8.53189 | 24055 ft | 380 kts | 298° |
| 2026-04-09 22:13 | 50.95480 | 8.49474 | 24039 ft | 380 kts | 298° |
| 2026-04-09 22:13 | 50.96703 | 8.45762 | 24052 ft | 379 kts | 298° |
| 2026-04-09 22:13 | 50.97918 | 8.42063 | 24056 ft | 379 kts | 298° |
| 2026-04-09 22:14 | 50.99136 | 8.38348 | 24059 ft | 378 kts | 298° |
| 2026-04-09 22:14 | 51.00398 | 8.34683 | 24061 ft | 378 kts | 303° |
| 2026-04-09 22:14 | 51.01996 | 8.31444 | 24064 ft | 378 kts | 313° |
| 2026-04-09 22:14 | 51.04011 | 8.28677 | 24069 ft | 380 kts | 323° |
| 2026-04-09 22:15 | 51.06254 | 8.26550 | 24067 ft | 381 kts | 328° |
| 2026-04-09 22:15 | 51.08572 | 8.24497 | 24062 ft | 381 kts | 328° |
| 2026-04-09 22:15 | 51.10884 | 8.22435 | 24066 ft | 381 kts | 328° |
| 2026-04-09 22:15 | 51.13192 | 8.20372 | 24062 ft | 381 kts | 328° |
| 2026-04-09 22:16 | 51.15504 | 8.18309 | 24054 ft | 381 kts | 328° |
| 2026-04-09 22:16 | 51.17817 | 8.16252 | 24054 ft | 381 kts | 328° |
| 2026-04-09 22:16 | 51.20131 | 8.14189 | 24055 ft | 380 kts | 328° |
| 2026-04-09 22:16 | 51.22440 | 8.12127 | 24048 ft | 380 kts | 328° |
| 2026-04-09 22:17 | 51.24748 | 8.10063 | 24028 ft | 381 kts | 328° |
| 2026-04-09 22:17 | 51.27059 | 8.07986 | 24026 ft | 381 kts | 328° |
| 2026-04-09 22:17 | 51.29373 | 8.05903 | 24025 ft | 382 kts | 328° |
| 2026-04-09 22:17 | 51.31694 | 8.03815 | 24029 ft | 383 kts | 328° |
| 2026-04-09 22:18 | 51.34013 | 8.01728 | 24020 ft | 383 kts | 328° |
| 2026-04-09 22:18 | 51.36335 | 7.99634 | 24010 ft | 383 kts | 328° |
| 2026-04-09 22:18 | 51.38634 | 7.97560 | 24006 ft | 383 kts | 328° |
| 2026-04-09 22:18 | 51.40955 | 7.95466 | 24005 ft | 383 kts | 328° |
| 2026-04-09 22:19 | 51.43278 | 7.93371 | 24002 ft | 383 kts | 328° |
| 2026-04-09 22:19 | 51.45606 | 7.91272 | 23997 ft | 384 kts | 328° |
| 2026-04-09 22:19 | 51.47966 | 7.89249 | 23992 ft | 385 kts | 333° |
| 2026-04-09 22:19 | 51.50503 | 7.87790 | 23993 ft | 388 kts | 340° |
| 2026-04-09 22:20 | 51.53091 | 7.86557 | 23994 ft | 388 kts | 340° |
| 2026-04-09 22:20 | 51.55662 | 7.85334 | 23829 ft | 382 kts | 340° |
| 2026-04-09 22:20 | 51.58200 | 7.84126 | 23333 ft | 378 kts | 340° |
| 2026-04-09 22:20 | 51.60702 | 7.82927 | 22873 ft | 373 kts | 339° |
| 2026-04-09 22:21 | 51.63175 | 7.81734 | 22420 ft | 369 kts | 339° |
| 2026-04-09 22:21 | 51.65625 | 7.80549 | 21965 ft | 366 kts | 339° |
| 2026-04-09 22:21 | 51.68052 | 7.79376 | 21515 ft | 362 kts | 339° |
| 2026-04-09 22:21 | 51.70462 | 7.78214 | 21058 ft | 359 kts | 339° |
| 2026-04-09 22:22 | 51.72847 | 7.77064 | 20593 ft | 356 kts | 339° |
| 2026-04-09 22:22 | 51.75204 | 7.75923 | 20125 ft | 353 kts | 338° |
| 2026-04-09 22:22 | 51.77516 | 7.74803 | 19659 ft | 350 kts | 338° |
| 2026-04-09 22:22 | 51.79839 | 7.73681 | 19187 ft | 348 kts | 338° |
| 2026-04-09 22:23 | 51.82207 | 7.72805 | 18696 ft | 353 kts | 348° |
| 2026-04-09 22:23 | 51.84686 | 7.72854 | 18171 ft | 361 kts | 3° |
| 2026-04-09 22:23 | 51.87126 | 7.73941 | 17592 ft | 369 kts | 18° |
| 2026-04-09 22:23 | 51.89362 | 7.76053 | 17033 ft | 376 kts | 34° |
| 2026-04-09 22:24 | 51.91348 | 7.78806 | 16468 ft | 376 kts | 37° |
| 2026-04-09 22:24 | 51.93276 | 7.81673 | 16058 ft | 374 kts | 45° |
| 2026-04-09 22:24 | 51.94725 | 7.85130 | 15610 ft | 373 kts | 62° |
| 2026-04-09 22:24 | 51.95457 | 7.89172 | 14625 ft | 377 kts | 83° |
| 2026-04-09 22:25 | 51.95310 | 7.93398 | 13652 ft | 376 kts | 104° |
| 2026-04-09 22:25 | 51.94360 | 7.97296 | 12601 ft | 371 kts | 123° |
| 2026-04-09 22:25 | 51.93357 | 7.99508 | 11951 ft | 366 kts | 136° |
| 2026-04-09 22:25 | 51.91439 | 8.01982 | 11615 ft | 338 kts | 154° |
| 2026-04-09 22:26 | 51.89383 | 8.03393 | 11539 ft | 307 kts | 170° |
| 2026-04-09 22:26 | 51.87261 | 8.03867 | 11477 ft | 311 kts | 185° |
| 2026-04-09 22:26 | 51.85140 | 8.03417 | 11394 ft | 305 kts | 201° |
| 2026-04-09 22:26 | 51.83210 | 8.02112 | 11309 ft | 298 kts | 215° |
| 2026-04-09 22:27 | 51.81579 | 8.00104 | 11222 ft | 292 kts | 229° |
| 2026-04-09 22:27 | 51.80331 | 7.97552 | 11127 ft | 287 kts | 243° |
| 2026-04-09 22:27 | 51.79525 | 7.94674 | 11046 ft | 283 kts | 255° |
| 2026-04-09 22:27 | 51.79164 | 7.91567 | 10964 ft | 281 kts | 268° |
| 2026-04-09 22:28 | 51.79259 | 7.88425 | 10889 ft | 280 kts | 280° |
| 2026-04-09 22:28 | 51.79806 | 7.85421 | 10803 ft | 280 kts | 292° |
| 2026-04-09 22:28 | 51.80774 | 7.82691 | 10714 ft | 281 kts | 302° |
| 2026-04-09 22:28 | 51.81870 | 7.80076 | 10644 ft | 281 kts | 302° |
| 2026-04-09 22:29 | 51.82959 | 7.77454 | 10560 ft | 279 kts | 301° |
| 2026-04-09 22:29 | 51.84028 | 7.74872 | 10444 ft | 271 kts | 301° |
| 2026-04-09 22:29 | 51.85052 | 7.72395 | 10102 ft | 260 kts | 301° |
| 2026-04-09 22:29 | 51.86107 | 7.69991 | 9899 ft | 263 kts | 309° |
| 2026-04-09 22:30 | 51.87583 | 7.68196 | 9770 ft | 271 kts | 330° |
| 2026-04-09 22:30 | 51.89444 | 7.67465 | 9637 ft | 284 kts | 353° |
| 2026-04-09 22:30 | 51.91414 | 7.68059 | 9506 ft | 296 kts | 18° |
| 2026-04-09 22:30 | 51.93098 | 7.70032 | 9375 ft | 305 kts | 46° |
| 2026-04-09 22:31 | 51.94209 | 7.72863 | 9246 ft | 299 kts | 57° |
| 2026-04-09 22:31 | 51.95266 | 7.75703 | 9112 ft | 289 kts | 53° |
| 2026-04-09 22:31 | 51.96422 | 7.78319 | 8860 ft | 283 kts | 47° |
| 2026-04-09 22:31 | 51.97709 | 7.80722 | 8526 ft | 281 kts | 41° |
| 2026-04-09 22:32 | 51.99108 | 7.82899 | 8186 ft | 274 kts | 36° |
| 2026-04-09 22:32 | 52.00555 | 7.84809 | 7842 ft | 263 kts | 31° |
| 2026-04-09 22:32 | 52.02026 | 7.86462 | 7528 ft | 252 kts | 27° |
| 2026-04-09 22:32 | 52.03480 | 7.87967 | 7211 ft | 244 kts | 27° |
| 2026-04-09 22:33 | 52.04880 | 7.89424 | 6913 ft | 236 kts | 28° |
| 2026-04-09 22:33 | 52.06237 | 7.90837 | 6644 ft | 226 kts | 28° |
| 2026-04-09 22:33 | 52.07528 | 7.92180 | 6363 ft | 216 kts | 27° |
| 2026-04-09 22:33 | 52.08783 | 7.93430 | 6020 ft | 208 kts | 26° |
| 2026-04-09 22:34 | 52.09991 | 7.94611 | 5727 ft | 195 kts | 26° |
| 2026-04-09 22:34 | 52.11122 | 7.95717 | 5467 ft | 184 kts | 26° |
| 2026-04-09 22:34 | 52.12192 | 7.96767 | 5199 ft | 176 kts | 26° |
| 2026-04-09 22:34 | 52.13219 | 7.97774 | 4977 ft | 169 kts | 25° |
| 2026-04-09 22:35 | 52.14216 | 7.98752 | 4746 ft | 166 kts | 25° |
| 2026-04-09 22:35 | 52.15198 | 7.99717 | 4514 ft | 163 kts | 26° |
| 2026-04-09 22:35 | 52.16150 | 8.00651 | 4276 ft | 161 kts | 26° |
| 2026-04-09 22:35 | 52.17159 | 8.01288 | 4118 ft | 152 kts | 359° |
| 2026-04-09 22:36 | 52.18169 | 8.01084 | 3974 ft | 144 kts | 331° |
| 2026-04-09 22:36 | 52.18966 | 8.00194 | 3832 ft | 137 kts | 306° |
| 2026-04-09 22:36 | 52.19426 | 7.98877 | 3698 ft | 133 kts | 283° |
| 2026-04-09 22:36 | 52.19500 | 7.97395 | 3563 ft | 132 kts | 260° |
| 2026-04-09 22:37 | 52.19226 | 7.95969 | 3453 ft | 132 kts | 251° |
| 2026-04-09 22:37 | 52.18928 | 7.94547 | 3289 ft | 132 kts | 250° |
| 2026-04-09 22:37 | 52.18631 | 7.93125 | 3119 ft | 132 kts | 250° |
| 2026-04-09 22:37 | 52.18336 | 7.91715 | 2942 ft | 132 kts | 250° |
| 2026-04-09 22:38 | 52.18042 | 7.90306 | 2768 ft | 132 kts | 249° |
| 2026-04-09 22:38 | 52.17749 | 7.88900 | 2605 ft | 130 kts | 247° |
| 2026-04-09 22:38 | 52.17457 | 7.87502 | 2425 ft | 131 kts | 248° |
| 2026-04-09 22:38 | 52.17163 | 7.86098 | 2250 ft | 130 kts | 246° |
| 2026-04-09 22:39 | 52.16872 | 7.84706 | 2076 ft | 130 kts | 246° |
| 2026-04-09 22:39 | 52.16581 | 7.83326 | 1918 ft | 129 kts | 245° |
| 2026-04-09 22:39 | 52.16302 | 7.81949 | 1728 ft | 130 kts | 247° |
| 2026-04-09 22:39 | 52.16028 | 7.80550 | 1534 ft | 130 kts | 245° |
| 2026-04-09 22:40 | 52.15727 | 7.79160 | 1317 ft | 130 kts | 245° |
| 2026-04-09 22:40 | 52.15427 | 7.77758 | 1122 ft | 132 kts | 245° |
| 2026-04-09 22:40 | 52.15131 | 7.76322 | 951 ft | 135 kts | 246° |
| 2026-04-09 22:40 | 52.14817 | 7.74868 | 758 ft | 138 kts | 245° |
| 2026-04-09 22:41 | 52.14499 | 7.73380 | 589 ft | 140 kts | 251° |
| 2026-04-09 22:41 | 52.14187 | 7.71882 | 429 ft | 139 kts | 248° |
| 2026-04-09 22:41 | 52.13864 | 7.70395 | 267 ft | 139 kts | 249° |
| 2026-04-09 22:41 | 52.13559 | 7.68921 | 168 ft | 128 kts | 249° |
| 2026-04-09 22:42 | 52.13328 | 7.67826 | 163 ft | 67 kts | 251° |
| 2026-04-09 22:42 | 52.13212 | 7.67291 | 162 ft | 47 kts | 252° |
| 2026-04-09 22:42 | 52.13112 | 7.67054 | 164 ft | 19 kts | 171° |
| 2026-04-09 22:42 | 52.13055 | 7.67119 | 164 ft | 0 kts | 121° |
| 2026-04-09 22:43 | 52.13048 | 7.67138 | 165 ft | 5 kts | 122° |
| 2026-04-09 22:44 | 52.13032 | 7.67249 | 164 ft | 15 kts | 83° |
| 2026-04-09 22:44 | 52.13074 | 7.67454 | 162 ft | 23 kts | 70° |
| 2026-04-09 22:44 | 52.13130 | 7.67729 | 162 ft | 27 kts | 72° |
| 2026-04-09 22:44 | 52.13191 | 7.68019 | 167 ft | 28 kts | 70° |
| 2026-04-09 22:45 | 52.13255 | 7.68323 | 170 ft | 29 kts | 71° |
| 2026-04-09 22:45 | 52.13325 | 7.68649 | 169 ft | 32 kts | 71° |
| 2026-04-09 22:45 | 52.13400 | 7.69009 | 165 ft | 31 kts | 72° |
| 2026-04-09 22:45 | 52.13418 | 7.69230 | 165 ft | 5 kts | 150° |
| 2026-04-09 22:46 | 52.13409 | 7.69234 | 165 ft | 3 kts | 159° |
| 2026-04-09 22:46 | 52.13376 | 7.69253 | 165 ft | 7 kts | 161° |
| 2026-04-09 22:46 | 52.13328 | 7.69280 | 165 ft | 0 kts | 161° |
| 2026-04-09 22:46 | 52.13322 | 7.69284 | 165 ft | 2 kts | 161° |
| 2026-04-09 22:47 | 52.13277 | 7.69309 | 167 ft | 11 kts | 161° |
| 2026-04-09 22:47 | 52.13213 | 7.69252 | 167 ft | 13 kts | 238° |
| 2026-04-09 22:47 | 52.13148 | 7.69225 | 168 ft | 8 kts | 184° |
| 2026-04-09 22:47 | 52.13131 | 7.69221 | 168 ft | 0 kts | 190° |
| 2026-04-09 22:48 | 52.13132 | 7.69221 | 168 ft | 0 kts | 190° |